sensor_id;sensor_type;location;lat;lon;timestamp;pressure;altitude;pressure_sealevel;temperature;humidity
64095;BME280;50353;51.420;5.682;2023-03-20T00:00:37;101727.75;;;11.43;76.83
64095;BME280;50353;51.420;5.682;2023-03-20T00:03:02;101718.50;;;11.52;76.18
64095;BME280;50353;51.420;5.682;2023-03-20T00:05:29;101714.50;;;11.78;74.65
64095;BME280;50353;51.420;5.682;2023-03-20T00:07:55;101719.44;;;11.68;75.32
64095;BME280;50353;51.420;5.682;2023-03-20T00:10:25;101717.00;;;11.46;75.80
64095;BME280;50353;51.420;5.682;2023-03-20T00:12:51;101717.66;;;11.14;77.36
64095;BME280;50353;51.420;5.682;2023-03-20T00:15:28;101719.09;;;11.39;76.55
64095;BME280;50353;51.420;5.682;2023-03-20T00:17:55;101723.13;;;11.11;77.90
64095;BME280;50353;51.420;5.682;2023-03-20T00:20:21;101722.81;;;11.18;77.87
64095;BME280;50353;51.420;5.682;2023-03-20T00:22:47;101719.50;;;11.12;77.72
64095;BME280;50353;51.420;5.682;2023-03-20T00:25:17;101717.25;;;11.05;78.46
64095;BME280;50353;51.420;5.682;2023-03-20T00:27:44;101719.72;;;11.27;78.47
64095;BME280;50353;51.420;5.682;2023-03-20T00:30:28;101717.72;;;11.49;76.33
64095;BME280;50353;51.420;5.682;2023-03-20T00:32:56;101719.34;;;11.35;77.37
64095;BME280;50353;51.420;5.682;2023-03-20T00:35:27;101715.94;;;11.67;75.59
64095;BME280;50353;51.420;5.682;2023-03-20T00:37:55;101705.59;;;11.45;76.09
64095;BME280;50353;51.420;5.682;2023-03-20T00:40:21;101706.25;;;11.49;76.04
64095;BME280;50353;51.420;5.682;2023-03-20T00:42:49;101702.31;;;11.40;76.34
64095;BME280;50353;51.420;5.682;2023-03-20T00:45:19;101692.47;;;11.60;75.03
64095;BME280;50353;51.420;5.682;2023-03-20T00:47:47;101692.63;;;11.39;75.51
64095;BME280;50353;51.420;5.682;2023-03-20T00:50:16;101698.84;;;11.38;74.93
64095;BME280;50353;51.420;5.682;2023-03-20T00:52:42;101686.09;;;11.29;76.42
64095;BME280;50353;51.420;5.682;2023-03-20T00:55:09;101673.66;;;11.48;75.47
64095;BME280;50353;51.420;5.682;2023-03-20T00:57:44;101670.34;;;10.89;77.76
64095;BME280;50353;51.420;5.682;2023-03-20T01:00:39;101667.53;;;11.11;77.18
64095;BME280;50353;51.420;5.682;2023-03-20T01:03:19;101657.63;;;10.97;77.27
64095;BME280;50353;51.420;5.682;2023-03-20T01:05:45;101659.25;;;10.82;79.04
64095;BME280;50353;51.420;5.682;2023-03-20T01:08:13;101659.38;;;10.41;80.64
64095;BME280;50353;51.420;5.682;2023-03-20T01:10:39;101666.81;;;10.52;80.34
64095;BME280;50353;51.420;5.682;2023-03-20T01:15:46;101677.81;;;10.62;79.16
64095;BME280;50353;51.420;5.682;2023-03-20T01:18:13;101689.44;;;10.96;77.95
64095;BME280;50353;51.420;5.682;2023-03-20T01:20:39;101704.25;;;10.62;79.37
64095;BME280;50353;51.420;5.682;2023-03-20T01:23:05;101709.19;;;10.70;79.23
64095;BME280;50353;51.420;5.682;2023-03-20T01:25:30;101713.72;;;10.68;78.83
64095;BME280;50353;51.420;5.682;2023-03-20T01:27:56;101720.44;;;10.75;78.83
64095;BME280;50353;51.420;5.682;2023-03-20T01:30:28;101712.69;;;10.70;78.71
64095;BME280;50353;51.420;5.682;2023-03-20T01:32:54;101702.91;;;10.91;78.00
64095;BME280;50353;51.420;5.682;2023-03-20T01:35:23;101692.91;;;10.60;78.75
64095;BME280;50353;51.420;5.682;2023-03-20T01:37:49;101684.38;;;10.34;80.36
64095;BME280;50353;51.420;5.682;2023-03-20T01:40:30;101688.63;;;10.18;81.93
64095;BME280;50353;51.420;5.682;2023-03-20T01:43:00;101707.13;;;10.38;80.07
64095;BME280;50353;51.420;5.682;2023-03-20T01:45:31;101713.41;;;10.15;80.57
64095;BME280;50353;51.420;5.682;2023-03-20T01:47:58;101714.25;;;10.15;81.59
64095;BME280;50353;51.420;5.682;2023-03-20T01:50:31;101714.94;;;10.00;81.59
64095;BME280;50353;51.420;5.682;2023-03-20T01:53:22;101712.22;;;9.60;82.88
64095;BME280;50353;51.420;5.682;2023-03-20T01:55:46;101704.00;;;9.89;82.50
64095;BME280;50353;51.420;5.682;2023-03-20T01:58:17;101711.59;;;9.33;84.70
64095;BME280;50353;51.420;5.682;2023-03-20T02:00:44;101717.03;;;9.51;83.98
64095;BME280;50353;51.420;5.682;2023-03-20T02:03:10;101717.22;;;9.24;84.21
64095;BME280;50353;51.420;5.682;2023-03-20T02:05:36;101707.75;;;10.04;80.82
64095;BME280;50353;51.420;5.682;2023-03-20T02:08:24;101695.00;;;9.52;83.67
64095;BME280;50353;51.420;5.682;2023-03-20T02:10:51;101704.31;;;9.60;83.55
64095;BME280;50353;51.420;5.682;2023-03-20T02:13:18;101698.09;;;9.61;83.47
64095;BME280;50353;51.420;5.682;2023-03-20T02:16:01;101689.13;;;9.66;83.13
64095;BME280;50353;51.420;5.682;2023-03-20T02:18:27;101684.28;;;8.90;85.32
64095;BME280;50353;51.420;5.682;2023-03-20T02:27:07;101674.53;;;9.57;83.51
64095;BME280;50353;51.420;5.682;2023-03-20T02:36:08;101703.03;;;9.48;82.72
64095;BME280;50353;51.420;5.682;2023-03-20T02:46:55;101721.25;;;9.55;81.12
64095;BME280;50353;51.420;5.682;2023-03-20T02:52:03;101718.03;;;9.89;79.55
64095;BME280;50353;51.420;5.682;2023-03-20T02:57:20;101712.06;;;9.43;81.55
64095;BME280;50353;51.420;5.682;2023-03-20T02:59:53;101697.81;;;8.82;84.09
64095;BME280;50353;51.420;5.682;2023-03-20T03:02:37;101697.25;;;8.96;85.20
64095;BME280;50353;51.420;5.682;2023-03-20T03:05:12;101688.69;;;8.20;87.75
64095;BME280;50353;51.420;5.682;2023-03-20T03:07:42;101686.06;;;8.67;87.32
64095;BME280;50353;51.420;5.682;2023-03-20T03:10:26;101687.88;;;8.65;87.01
64095;BME280;50353;51.420;5.682;2023-03-20T03:12:55;101696.84;;;8.83;85.93
64095;BME280;50353;51.420;5.682;2023-03-20T03:15:44;101690.41;;;8.68;85.73
64095;BME280;50353;51.420;5.682;2023-03-20T03:18:14;101687.53;;;9.41;81.81
64095;BME280;50353;51.420;5.682;2023-03-20T03:20:43;101687.13;;;9.50;80.67
64095;BME280;50353;51.420;5.682;2023-03-20T03:23:18;101688.75;;;9.32;82.08
64095;BME280;50353;51.420;5.682;2023-03-20T03:25:45;101673.09;;;9.70;80.61
64095;BME280;50353;51.420;5.682;2023-03-20T03:31:05;101666.81;;;8.87;84.24
64095;BME280;50353;51.420;5.682;2023-03-20T03:33:32;101667.59;;;8.43;84.47
64095;BME280;50353;51.420;5.682;2023-03-20T03:36:10;101661.19;;;8.51;86.18
64095;BME280;50353;51.420;5.682;2023-03-20T03:38:49;101659.69;;;8.43;85.22
64095;BME280;50353;51.420;5.682;2023-03-20T03:41:34;101651.31;;;8.79;84.71
64095;BME280;50353;51.420;5.682;2023-03-20T03:44:10;101647.25;;;8.23;85.81
64095;BME280;50353;51.420;5.682;2023-03-20T03:46:52;101637.38;;;8.06;85.42
64095;BME280;50353;51.420;5.682;2023-03-20T03:49:41;101655.50;;;8.61;85.64
64095;BME280;50353;51.420;5.682;2023-03-20T03:52:14;101656.84;;;9.16;82.21
64095;BME280;50353;51.420;5.682;2023-03-20T03:54:47;101653.69;;;8.86;82.80
64095;BME280;50353;51.420;5.682;2023-03-20T03:57:17;101658.06;;;8.87;83.43
64095;BME280;50353;51.420;5.682;2023-03-20T03:59:47;101647.56;;;9.07;82.03
64095;BME280;50353;51.420;5.682;2023-03-20T04:02:15;101655.88;;;9.19;81.03
64095;BME280;50353;51.420;5.682;2023-03-20T04:04:45;101653.16;;;9.42;80.72
64095;BME280;50353;51.420;5.682;2023-03-20T04:07:14;101649.53;;;9.02;82.09
64095;BME280;50353;51.420;5.682;2023-03-20T04:09:40;101654.94;;;8.53;83.93
64095;BME280;50353;51.420;5.682;2023-03-20T04:12:20;101641.91;;;8.50;85.99
64095;BME280;50353;51.420;5.682;2023-03-20T04:14:50;101641.56;;;8.82;83.38
64095;BME280;50353;51.420;5.682;2023-03-20T04:17:15;101635.91;;;8.91;82.76
64095;BME280;50353;51.420;5.682;2023-03-20T04:19:41;101648.03;;;8.51;82.57
64095;BME280;50353;51.420;5.682;2023-03-20T04:22:06;101636.22;;;8.61;83.85
64095;BME280;50353;51.420;5.682;2023-03-20T04:24:31;101640.09;;;8.74;83.82
64095;BME280;50353;51.420;5.682;2023-03-20T04:26:57;101638.00;;;8.83;82.09
64095;BME280;50353;51.420;5.682;2023-03-20T04:29:22;101644.25;;;9.02;81.35
64095;BME280;50353;51.420;5.682;2023-03-20T04:31:48;101635.81;;;9.14;80.56
64095;BME280;50353;51.420;5.682;2023-03-20T04:34:13;101632.97;;;8.99;80.87
64095;BME280;50353;51.420;5.682;2023-03-20T04:36:39;101631.50;;;8.69;81.37
64095;BME280;50353;51.420;5.682;2023-03-20T04:39:04;101634.31;;;9.52;78.98
64095;BME280;50353;51.420;5.682;2023-03-20T04:41:30;101633.03;;;9.19;79.75
64095;BME280;50353;51.420;5.682;2023-03-20T04:43:55;101640.19;;;9.16;79.83
64095;BME280;50353;51.420;5.682;2023-03-20T04:46:20;101645.63;;;8.90;80.15
64095;BME280;50353;51.420;5.682;2023-03-20T04:48:45;101638.06;;;8.81;80.74
64095;BME280;50353;51.420;5.682;2023-03-20T04:51:11;101638.59;;;9.11;79.50
64095;BME280;50353;51.420;5.682;2023-03-20T04:53:36;101636.78;;;9.13;79.49
64095;BME280;50353;51.420;5.682;2023-03-20T04:56:01;101631.88;;;9.04;79.33
64095;BME280;50353;51.420;5.682;2023-03-20T04:58:27;101633.47;;;9.08;79.11
64095;BME280;50353;51.420;5.682;2023-03-20T05:00:52;101623.97;;;9.04;79.61
64095;BME280;50353;51.420;5.682;2023-03-20T05:03:17;101620.41;;;8.83;80.34
64095;BME280;50353;51.420;5.682;2023-03-20T05:05:42;101611.50;;;8.86;80.78
64095;BME280;50353;51.420;5.682;2023-03-20T05:08:08;101618.56;;;9.28;78.49
64095;BME280;50353;51.420;5.682;2023-03-20T05:10:33;101599.72;;;9.17;79.12
64095;BME280;50353;51.420;5.682;2023-03-20T05:12:58;101610.03;;;9.01;79.31
64095;BME280;50353;51.420;5.682;2023-03-20T05:15:23;101615.91;;;9.07;78.99
64095;BME280;50353;51.420;5.682;2023-03-20T05:17:49;101624.00;;;8.80;79.83
64095;BME280;50353;51.420;5.682;2023-03-20T05:20:14;101625.81;;;9.23;78.84
64095;BME280;50353;51.420;5.682;2023-03-20T05:22:40;101638.25;;;8.76;79.88
64095;BME280;50353;51.420;5.682;2023-03-20T05:25:05;101638.25;;;8.76;80.88
64095;BME280;50353;51.420;5.682;2023-03-20T05:27:31;101633.34;;;8.67;80.86
64095;BME280;50353;51.420;5.682;2023-03-20T05:29:56;101621.25;;;8.61;82.03
64095;BME280;50353;51.420;5.682;2023-03-20T05:32:21;101615.31;;;9.01;80.40
64095;BME280;50353;51.420;5.682;2023-03-20T05:34:46;101626.53;;;9.06;80.63
64095;BME280;50353;51.420;5.682;2023-03-20T05:37:12;101623.47;;;8.72;81.67
64095;BME280;50353;51.420;5.682;2023-03-20T05:39:37;101623.84;;;8.85;81.96
64095;BME280;50353;51.420;5.682;2023-03-20T05:42:03;101622.88;;;8.88;80.09
64095;BME280;50353;51.420;5.682;2023-03-20T05:44:28;101620.75;;;8.52;81.51
64095;BME280;50353;51.420;5.682;2023-03-20T05:46:53;101620.59;;;8.78;81.34
64095;BME280;50353;51.420;5.682;2023-03-20T05:49:19;101623.16;;;9.02;79.96
64095;BME280;50353;51.420;5.682;2023-03-20T05:51:44;101627.13;;;9.12;79.83
64095;BME280;50353;51.420;5.682;2023-03-20T05:54:10;101619.66;;;8.34;82.43
64095;BME280;50353;51.420;5.682;2023-03-20T05:56:35;101624.31;;;8.95;80.61
64095;BME280;50353;51.420;5.682;2023-03-20T05:59:00;101627.94;;;8.92;80.56
64095;BME280;50353;51.420;5.682;2023-03-20T06:01:26;101627.59;;;8.79;80.31
64095;BME280;50353;51.420;5.682;2023-03-20T06:03:52;101631.63;;;8.66;81.61
64095;BME280;50353;51.420;5.682;2023-03-20T06:06:17;101639.69;;;8.61;81.63
64095;BME280;50353;51.420;5.682;2023-03-20T06:08:42;101633.97;;;8.96;80.21
64095;BME280;50353;51.420;5.682;2023-03-20T06:11:08;101636.16;;;9.07;79.96
64095;BME280;50353;51.420;5.682;2023-03-20T06:13:34;101642.63;;;8.30;83.70
64095;BME280;50353;51.420;5.682;2023-03-20T06:15:59;101647.91;;;8.30;83.32
64095;BME280;50353;51.420;5.682;2023-03-20T06:18:25;101650.22;;;8.63;81.75
64095;BME280;50353;51.420;5.682;2023-03-20T06:20:55;101657.06;;;9.11;80.02
64095;BME280;50353;51.420;5.682;2023-03-20T06:23:21;101659.13;;;8.35;82.45
64095;BME280;50353;51.420;5.682;2023-03-20T06:25:46;101655.16;;;8.71;81.25
64095;BME280;50353;51.420;5.682;2023-03-20T06:28:12;101651.19;;;8.83;82.26
64095;BME280;50353;51.420;5.682;2023-03-20T06:30:38;101656.00;;;9.16;80.57
64095;BME280;50353;51.420;5.682;2023-03-20T06:33:05;101650.28;;;8.84;81.11
64095;BME280;50353;51.420;5.682;2023-03-20T06:35:30;101656.34;;;8.86;80.65
64095;BME280;50353;51.420;5.682;2023-03-20T06:37:56;101664.06;;;9.12;79.58
64095;BME280;50353;51.420;5.682;2023-03-20T06:40:22;101664.59;;;8.76;81.00
64095;BME280;50353;51.420;5.682;2023-03-20T06:42:47;101667.78;;;8.85;81.09
64095;BME280;50353;51.420;5.682;2023-03-20T06:45:13;101669.09;;;8.96;79.61
64095;BME280;50353;51.420;5.682;2023-03-20T06:47:38;101670.56;;;9.26;78.28
64095;BME280;50353;51.420;5.682;2023-03-20T06:50:04;101675.28;;;8.95;79.62
64095;BME280;50353;51.420;5.682;2023-03-20T06:52:29;101677.63;;;8.81;79.45
64095;BME280;50353;51.420;5.682;2023-03-20T06:54:54;101683.25;;;9.38;77.31
64095;BME280;50353;51.420;5.682;2023-03-20T06:57:20;101698.53;;;8.86;79.23
64095;BME280;50353;51.420;5.682;2023-03-20T06:59:46;101693.66;;;8.97;79.36
64095;BME280;50353;51.420;5.682;2023-03-20T07:02:11;101701.84;;;8.91;78.22
64095;BME280;50353;51.420;5.682;2023-03-20T07:04:37;101707.34;;;9.29;78.25
64095;BME280;50353;51.420;5.682;2023-03-20T07:07:02;101701.28;;;9.05;78.02
64095;BME280;50353;51.420;5.682;2023-03-20T07:09:28;101704.09;;;9.65;76.49
64095;BME280;50353;51.420;5.682;2023-03-20T07:11:53;101700.06;;;9.13;77.17
64095;BME280;50353;51.420;5.682;2023-03-20T07:14:19;101700.94;;;9.77;74.68
64095;BME280;50353;51.420;5.682;2023-03-20T07:16:44;101704.63;;;9.73;75.33
64095;BME280;50353;51.420;5.682;2023-03-20T07:19:10;101707.69;;;9.42;77.34
64095;BME280;50353;51.420;5.682;2023-03-20T07:21:37;101704.53;;;9.54;76.29
64095;BME280;50353;51.420;5.682;2023-03-20T07:24:02;101703.50;;;9.58;75.30
64095;BME280;50353;51.420;5.682;2023-03-20T07:26:27;101706.44;;;9.08;79.14
64095;BME280;50353;51.420;5.682;2023-03-20T07:28:53;101708.84;;;9.57;76.26
64095;BME280;50353;51.420;5.682;2023-03-20T07:31:24;101710.28;;;9.43;76.27
64095;BME280;50353;51.420;5.682;2023-03-20T07:33:50;101709.59;;;9.60;75.08
64095;BME280;50353;51.420;5.682;2023-03-20T07:36:15;101710.75;;;9.33;76.32
64095;BME280;50353;51.420;5.682;2023-03-20T07:38:41;101719.19;;;9.41;76.29
64095;BME280;50353;51.420;5.682;2023-03-20T07:41:06;101716.44;;;9.44;76.54
64095;BME280;50353;51.420;5.682;2023-03-20T07:43:32;101729.44;;;9.69;75.09
64095;BME280;50353;51.420;5.682;2023-03-20T07:46:01;101717.16;;;9.47;75.64
64095;BME280;50353;51.420;5.682;2023-03-20T07:48:26;101718.94;;;9.68;74.47
64095;BME280;50353;51.420;5.682;2023-03-20T07:50:52;101717.13;;;9.90;73.64
64095;BME280;50353;51.420;5.682;2023-03-20T07:53:17;101714.81;;;9.82;74.17
64095;BME280;50353;51.420;5.682;2023-03-20T07:55:43;101715.41;;;9.89;73.56
64095;BME280;50353;51.420;5.682;2023-03-20T07:58:08;101718.94;;;10.09;73.10
64095;BME280;50353;51.420;5.682;2023-03-20T08:00:34;101722.31;;;9.51;75.16
64095;BME280;50353;51.420;5.682;2023-03-20T08:03:00;101716.38;;;9.87;74.65
64095;BME280;50353;51.420;5.682;2023-03-20T08:05:25;101716.00;;;9.96;73.79
64095;BME280;50353;51.420;5.682;2023-03-20T08:07:51;101724.69;;;10.19;72.25
64095;BME280;50353;51.420;5.682;2023-03-20T08:10:16;101718.50;;;9.99;72.88
64095;BME280;50353;51.420;5.682;2023-03-20T08:12:42;101721.94;;;9.80;72.87
64095;BME280;50353;51.420;5.682;2023-03-20T08:15:08;101719.09;;;10.06;72.80
64095;BME280;50353;51.420;5.682;2023-03-20T08:17:33;101727.91;;;9.63;75.21
64095;BME280;50353;51.420;5.682;2023-03-20T08:19:58;101725.03;;;9.90;73.74
64095;BME280;50353;51.420;5.682;2023-03-20T08:22:24;101725.38;;;9.82;73.95
64095;BME280;50353;51.420;5.682;2023-03-20T08:24:49;101730.13;;;9.95;73.68
64095;BME280;50353;51.420;5.682;2023-03-20T08:27:14;101728.91;;;10.23;72.10
64095;BME280;50353;51.420;5.682;2023-03-20T08:29:41;101722.47;;;10.09;71.47
64095;BME280;50353;51.420;5.682;2023-03-20T08:32:06;101722.59;;;10.06;71.99
64095;BME280;50353;51.420;5.682;2023-03-20T08:34:32;101726.75;;;9.91;73.72
64095;BME280;50353;51.420;5.682;2023-03-20T08:36:57;101731.25;;;9.89;73.69
64095;BME280;50353;51.420;5.682;2023-03-20T08:39:23;101729.72;;;9.84;73.07
64095;BME280;50353;51.420;5.682;2023-03-20T08:41:48;101720.75;;;9.67;72.64
64095;BME280;50353;51.420;5.682;2023-03-20T08:44:13;101725.47;;;9.38;74.80
64095;BME280;50353;51.420;5.682;2023-03-20T08:46:38;101720.88;;;10.05;72.17
64095;BME280;50353;51.420;5.682;2023-03-20T08:49:04;101727.00;;;10.06;70.64
64095;BME280;50353;51.420;5.682;2023-03-20T08:51:30;101719.47;;;9.76;73.48
64095;BME280;50353;51.420;5.682;2023-03-20T08:53:55;101716.38;;;9.87;73.26
64095;BME280;50353;51.420;5.682;2023-03-20T08:56:20;101717.81;;;9.73;72.47
64095;BME280;50353;51.420;5.682;2023-03-20T08:58:46;101715.22;;;9.94;72.46
64095;BME280;50353;51.420;5.682;2023-03-20T09:01:11;101718.38;;;10.02;71.60
64095;BME280;50353;51.420;5.682;2023-03-20T09:03:37;101714.94;;;9.79;71.76
64095;BME280;50353;51.420;5.682;2023-03-20T09:06:06;101710.22;;;10.27;70.72
64095;BME280;50353;51.420;5.682;2023-03-20T09:08:33;101725.47;;;10.21;70.50
64095;BME280;50353;51.420;5.682;2023-03-20T09:10:58;101733.03;;;10.09;71.73
64095;BME280;50353;51.420;5.682;2023-03-20T09:13:23;101726.16;;;10.05;70.34
64095;BME280;50353;51.420;5.682;2023-03-20T09:15:49;101731.25;;;9.89;70.91
64095;BME280;50353;51.420;5.682;2023-03-20T09:18:15;101721.94;;;10.01;70.05
64095;BME280;50353;51.420;5.682;2023-03-20T09:20:40;101719.22;;;10.03;70.94
64095;BME280;50353;51.420;5.682;2023-03-20T09:23:06;101721.19;;;10.18;70.09
64095;BME280;50353;51.420;5.682;2023-03-20T09:25:31;101722.84;;;10.21;70.35
64095;BME280;50353;51.420;5.682;2023-03-20T09:27:56;101729.69;;;10.25;69.15
64095;BME280;50353;51.420;5.682;2023-03-20T09:30:23;101718.50;;;10.40;68.46
64095;BME280;50353;51.420;5.682;2023-03-20T09:32:49;101724.41;;;10.45;67.71
64095;BME280;50353;51.420;5.682;2023-03-20T09:35:16;101724.41;;;10.25;67.79
64095;BME280;50353;51.420;5.682;2023-03-20T09:37:41;101720.50;;;9.94;67.96
64095;BME280;50353;51.420;5.682;2023-03-20T09:40:07;101734.03;;;9.86;68.35
64095;BME280;50353;51.420;5.682;2023-03-20T09:53:50;101742.41;;;9.96;71.57
64095;BME280;50353;51.420;5.682;2023-03-20T09:56:26;101745.38;;;9.88;73.26
64095;BME280;50353;51.420;5.682;2023-03-20T09:59:02;101753.19;;;9.69;74.86
64095;BME280;50353;51.420;5.682;2023-03-20T10:02:05;101747.38;;;9.61;74.06
64095;BME280;50353;51.420;5.682;2023-03-20T10:04:35;101734.38;;;9.56;75.11
64095;BME280;50353;51.420;5.682;2023-03-20T10:07:03;101742.97;;;9.61;76.71
64095;BME280;50353;51.420;5.682;2023-03-20T10:09:29;101741.78;;;9.48;76.48
64095;BME280;50353;51.420;5.682;2023-03-20T10:18:00;101741.47;;;9.76;79.24
64095;BME280;50353;51.420;5.682;2023-03-20T10:20:35;101731.31;;;9.67;78.41
64095;BME280;50353;51.420;5.682;2023-03-20T10:23:15;101734.41;;;9.77;78.70
64095;BME280;50353;51.420;5.682;2023-03-20T10:25:48;101724.97;;;9.92;78.11
64095;BME280;50353;51.420;5.682;2023-03-20T10:28:21;101711.63;;;9.95;78.93
64095;BME280;50353;51.420;5.682;2023-03-20T10:31:00;101719.31;;;9.80;78.44
64095;BME280;50353;51.420;5.682;2023-03-20T10:33:43;101721.59;;;9.88;77.80
64095;BME280;50353;51.420;5.682;2023-03-20T10:39:51;101721.75;;;8.98;83.78
64095;BME280;50353;51.420;5.682;2023-03-20T10:42:24;101721.56;;;9.47;82.75
64095;BME280;50353;51.420;5.682;2023-03-20T10:45:01;101707.09;;;9.78;82.18
64095;BME280;50353;51.420;5.682;2023-03-20T10:47:34;101701.63;;;10.22;78.91
64095;BME280;50353;51.420;5.682;2023-03-20T10:50:04;101708.47;;;9.87;80.81
64095;BME280;50353;51.420;5.682;2023-03-20T10:52:34;101706.22;;;10.19;79.69
64095;BME280;50353;51.420;5.682;2023-03-20T10:55:12;101705.53;;;10.13;81.00
64095;BME280;50353;51.420;5.682;2023-03-20T10:57:44;101705.13;;;10.23;79.28
64095;BME280;50353;51.420;5.682;2023-03-20T11:00:18;101698.13;;;10.22;81.13
64095;BME280;50353;51.420;5.682;2023-03-20T11:02:44;101697.06;;;10.26;81.50
64095;BME280;50353;51.420;5.682;2023-03-20T11:05:27;101703.31;;;10.04;79.11
64095;BME280;50353;51.420;5.682;2023-03-20T11:08:08;101696.91;;;10.29;80.24
64095;BME280;50353;51.420;5.682;2023-03-20T11:10:37;101704.78;;;10.30;80.77
64095;BME280;50353;51.420;5.682;2023-03-20T11:13:21;101693.00;;;10.19;79.29
64095;BME280;50353;51.420;5.682;2023-03-20T11:15:47;101704.91;;;10.27;78.61
64095;BME280;50353;51.420;5.682;2023-03-20T11:18:14;101700.19;;;10.55;78.01
64095;BME280;50353;51.420;5.682;2023-03-20T11:20:45;101703.91;;;10.11;78.36
64095;BME280;50353;51.420;5.682;2023-03-20T11:23:19;101700.50;;;9.25;84.45
64095;BME280;50353;51.420;5.682;2023-03-20T11:25:56;101696.53;;;9.57;83.14
64095;BME280;50353;51.420;5.682;2023-03-20T11:28:36;101700.13;;;9.96;83.15
64095;BME280;50353;51.420;5.682;2023-03-20T11:33:39;101677.16;;;9.77;79.71
64095;BME280;50353;51.420;5.682;2023-03-20T11:36:19;101674.47;;;10.00;79.55
64095;BME280;50353;51.420;5.682;2023-03-20T11:38:45;101670.75;;;10.04;81.05
64095;BME280;50353;51.420;5.682;2023-03-20T11:41:26;101670.13;;;10.18;80.93
64095;BME280;50353;51.420;5.682;2023-03-20T11:43:52;101669.53;;;10.70;78.59
64095;BME280;50353;51.420;5.682;2023-03-20T11:46:19;101661.25;;;10.58;79.42
64095;BME280;50353;51.420;5.682;2023-03-20T11:49:01;101659.81;;;10.70;78.86
64095;BME280;50353;51.420;5.682;2023-03-20T11:51:29;101652.31;;;10.97;77.28
64095;BME280;50353;51.420;5.682;2023-03-20T11:54:04;101654.50;;;10.70;77.38
64095;BME280;50353;51.420;5.682;2023-03-20T11:56:34;101656.13;;;10.92;75.52
64095;BME280;50353;51.420;5.682;2023-03-20T12:01:43;101648.88;;;11.14;74.55
64095;BME280;50353;51.420;5.682;2023-03-20T12:04:35;101658.78;;;10.92;76.83
64095;BME280;50353;51.420;5.682;2023-03-20T12:07:23;101648.38;;;10.70;77.53
64095;BME280;50353;51.420;5.682;2023-03-20T12:09:55;101648.69;;;11.18;75.22
64095;BME280;50353;51.420;5.682;2023-03-20T12:17:52;101642.72;;;11.31;74.88
64095;BME280;50353;51.420;5.682;2023-03-20T12:23:42;101648.13;;;10.38;78.49
64095;BME280;50353;51.420;5.682;2023-03-20T12:26:14;101644.59;;;11.12;77.08
64095;BME280;50353;51.420;5.682;2023-03-20T12:28:56;101641.53;;;11.02;78.20
64095;BME280;50353;51.420;5.682;2023-03-20T12:31:38;101635.31;;;11.38;75.59
64095;BME280;50353;51.420;5.682;2023-03-20T12:36:50;101635.72;;;11.30;75.68
64095;BME280;50353;51.420;5.682;2023-03-20T12:39:23;101626.94;;;10.93;76.84
64095;BME280;50353;51.420;5.682;2023-03-20T12:44:38;101631.28;;;11.13;77.54
64095;BME280;50353;51.420;5.682;2023-03-20T12:47:16;101623.97;;;11.54;74.63
64095;BME280;50353;51.420;5.682;2023-03-20T12:50:06;101622.34;;;11.51;74.59
64095;BME280;50353;51.420;5.682;2023-03-20T13:01:01;101609.94;;;11.16;76.10
64095;BME280;50353;51.420;5.682;2023-03-20T13:03:38;101604.44;;;11.39;73.30
64095;BME280;50353;51.420;5.682;2023-03-20T13:06:22;101597.63;;;11.50;74.83
64095;BME280;50353;51.420;5.682;2023-03-20T13:11:41;101599.53;;;10.59;77.63
64095;BME280;50353;51.420;5.682;2023-03-20T13:14:16;101591.75;;;11.45;74.16
64095;BME280;50353;51.420;5.682;2023-03-20T13:20:24;101590.09;;;10.90;76.35
64095;BME280;50353;51.420;5.682;2023-03-20T13:23:07;101591.03;;;11.24;74.84
64095;BME280;50353;51.420;5.682;2023-03-20T13:31:19;101592.84;;;11.24;73.43
64095;BME280;50353;51.420;5.682;2023-03-20T13:34:00;101584.97;;;11.22;71.93
64095;BME280;50353;51.420;5.682;2023-03-20T13:36:51;101592.66;;;11.44;72.08
64095;BME280;50353;51.420;5.682;2023-03-20T13:39:23;101589.94;;;11.46;71.41
64095;BME280;50353;51.420;5.682;2023-03-20T13:41:52;101575.06;;;11.26;73.69
64095;BME280;50353;51.420;5.682;2023-03-20T13:44:18;101579.91;;;11.35;72.29
64095;BME280;50353;51.420;5.682;2023-03-20T13:46:49;101579.91;;;11.35;73.05
64095;BME280;50353;51.420;5.682;2023-03-20T13:49:38;101578.50;;;11.45;75.17
64095;BME280;50353;51.420;5.682;2023-03-20T13:52:15;101573.13;;;11.29;75.76
64095;BME280;50353;51.420;5.682;2023-03-20T13:54:59;101569.47;;;11.49;73.67
64095;BME280;50353;51.420;5.682;2023-03-20T14:08:52;101557.59;;;11.06;75.80
64095;BME280;50353;51.420;5.682;2023-03-20T14:13:56;101557.09;;;11.32;73.62
64095;BME280;50353;51.420;5.682;2023-03-20T14:16:26;101554.88;;;11.58;73.22
64095;BME280;50353;51.420;5.682;2023-03-20T14:19:05;101553.72;;;11.46;72.44
64095;BME280;50353;51.420;5.682;2023-03-20T14:21:33;101544.94;;;11.46;73.66
64095;BME280;50353;51.420;5.682;2023-03-20T14:24:06;101552.91;;;11.11;74.84
64095;BME280;50353;51.420;5.682;2023-03-20T14:26:37;101551.41;;;11.23;75.57
64095;BME280;50353;51.420;5.682;2023-03-20T14:31:35;101544.63;;;11.68;70.79
64095;BME280;50353;51.420;5.682;2023-03-20T14:36:43;101537.63;;;11.33;72.62
64095;BME280;50353;51.420;5.682;2023-03-20T14:39:17;101538.28;;;11.21;72.60
64095;BME280;50353;51.420;5.682;2023-03-20T14:44:49;101528.84;;;11.66;72.21
64095;BME280;50353;51.420;5.682;2023-03-20T14:47:24;101530.94;;;11.44;72.29
64095;BME280;50353;51.420;5.682;2023-03-20T14:50:05;101524.06;;;11.40;72.79
64095;BME280;50353;51.420;5.682;2023-03-20T14:52:42;101524.44;;;11.49;73.63
64095;BME280;50353;51.420;5.682;2023-03-20T14:55:29;101517.84;;;11.41;73.10
64095;BME280;50353;51.420;5.682;2023-03-20T14:57:57;101517.84;;;11.23;73.47
64095;BME280;50353;51.420;5.682;2023-03-20T15:00:27;101519.28;;;11.30;73.75
64095;BME280;50353;51.420;5.682;2023-03-20T15:03:05;101513.75;;;11.18;73.28